Mamoudzou, Yemen
Current Conditions -  °F | °C
As of 8:30 PM on Thursday 30 Oct 2014 (Local Time) from FMCZ Reporting Station
Clear Clear  
Wind Chill: 27°   Ceiling: Unl
Heat Index: 30°   Visibility: 6mi
Dew Point: 23°   Wind: 0mph
Humidity: 79%   Direction: NA
Pressure: 29.91"   Gusts: NA
Location:  12.8°S, 45.23°E
Report Text: FMCZ 301730Z AUTO 00000KT 9999 NCD 27/23 Q1013
Loading
Personal Weather Stations






























Interactive Weather Map
Tropical Storm Tracking
New forecast layout! Learn more

10-Day Weather Forecast

Advertisements
Track Severe Weather on mobile